createdAt,value
2022-09-05T15:36:45.925Z,29.40
2022-09-05T15:39:29.311Z,29.40
2022-09-05T15:42:15.710Z,29.50
2022-09-05T15:45:09.255Z,29.50
2022-09-05T15:47:42.204Z,29.60
2022-09-05T15:50:22.649Z,29.70
2022-09-05T15:52:56.492Z,29.60
2022-09-05T15:55:41.857Z,29.50
2022-09-05T15:58:16.560Z,29.50
2022-09-05T16:00:51.455Z,29.40
2022-09-05T16:06:00.799Z,29.20
2022-09-05T16:10:34.099Z,29.20
2022-09-05T16:10:57.933Z,29.20
2022-09-05T16:19:00.181Z,29.10
2022-09-05T16:23:20.881Z,29.10
2022-09-05T16:23:30.460Z,29.00
2022-09-05T17:17:36.135Z,27.60
2022-09-05T17:20:07.223Z,27.50
2022-09-05T17:26:08.293Z,27.30
2022-09-05T17:29:25.565Z,27.20
2022-09-05T17:29:31.260Z,27.10
2022-09-05T17:31:53.648Z,27.00
2022-09-05T17:34:52.278Z,26.90
2022-09-05T17:37:49.146Z,26.80
2022-09-05T17:40:55.492Z,26.70
2022-09-05T17:43:29.093Z,26.50
2022-09-05T17:46:13.116Z,26.50
2022-09-05T17:49:19.356Z,26.40
2022-09-05T17:52:23.551Z,26.30
2022-09-05T17:54:55.356Z,26.20
2022-09-05T17:57:38.162Z,25.80
2022-09-05T18:00:43.402Z,25.40
2022-09-05T18:03:12.490Z,25.10
2022-09-05T18:06:04.087Z,25.00
2022-09-05T18:08:52.791Z,24.90
2022-09-05T18:11:45.249Z,24.80
2022-09-05T18:14:42.821Z,24.60
2022-09-05T18:17:52.994Z,24.40
2022-09-05T18:20:33.279Z,23.80
2022-09-05T18:23:37.306Z,23.30
2022-09-05T18:26:04.848Z,22.80
2022-09-05T18:28:43.341Z,22.50
2022-09-05T18:31:51.941Z,22.40
2022-09-05T18:34:43.153Z,22.20
2022-09-05T18:37:59.517Z,22.00
2022-09-05T18:40:57.350Z,22.00
2022-09-05T18:44:12.080Z,21.80
2022-09-05T18:46:47.053Z,21.80
2022-09-05T18:50:00.319Z,21.80
2022-09-05T18:52:23.411Z,21.80
2022-09-05T18:56:11.390Z,21.80
2022-09-05T18:57:52.457Z,21.80
2022-09-05T19:00:35.032Z,21.70
2022-09-05T19:03:19.827Z,21.60
2022-09-05T19:06:32.725Z,21.60
2022-09-05T19:08:56.164Z,21.60
2022-09-05T19:11:30.779Z,21.70
2022-09-05T19:14:28.566Z,21.70
2022-09-05T19:17:07.434Z,21.80
2022-09-05T19:20:31.704Z,21.80
2022-09-05T19:23:12.744Z,21.70
2022-09-05T19:25:45.154Z,21.60
2022-09-05T19:33:07.666Z,21.60
2022-09-05T19:36:56.962Z,21.60
2022-09-05T19:37:08.545Z,21.50
2022-09-05T19:37:30.375Z,21.60
2022-09-05T19:45:15.872Z,21.50
2022-09-05T19:47:28.228Z,21.40
2022-09-05T19:47:49.093Z,21.40
2022-09-05T19:48:35.875Z,21.40
2022-09-05T19:51:16.435Z,21.40
2022-09-05T19:54:04.888Z,21.40
2022-09-05T19:56:39.761Z,21.40
2022-09-05T19:59:19.870Z,21.40
2022-09-05T20:01:50.721Z,21.40
2022-09-05T20:04:20.339Z,21.40
2022-09-05T20:06:49.644Z,21.30
2022-09-05T20:09:20.867Z,21.30
2022-09-05T20:11:52.647Z,21.30
2022-09-05T20:14:24.733Z,21.30
2022-09-05T20:16:56.557Z,21.30
2022-09-05T20:19:29.223Z,21.40
2022-09-05T20:22:05.453Z,21.40
2022-09-05T20:24:43.966Z,21.40
2022-09-05T20:27:16.828Z,21.40
2022-09-05T20:29:55.731Z,21.40
2022-09-05T20:32:38.973Z,21.20
2022-09-05T20:43:17.606Z,21.40
2022-09-05T20:43:36.961Z,21.40
2022-09-05T20:47:43.592Z,21.50
2022-09-05T20:54:07.681Z,21.30
2022-09-05T20:54:20.542Z,21.10
2022-09-05T20:54:44.125Z,21.00
2022-09-05T20:57:15.439Z,20.80
2022-09-05T20:59:47.472Z,20.70
2022-09-05T21:02:26.187Z,20.70
2022-09-05T21:05:07.978Z,20.60
2022-09-05T21:08:07.289Z,20.60
2022-09-05T21:10:55.790Z,20.60
2022-09-05T21:13:27.517Z,20.50
2022-09-05T21:15:57.609Z,20.50
2022-09-05T21:18:33.103Z,20.50
2022-09-05T21:21:27.961Z,20.40
2022-09-05T21:24:16.521Z,20.30
2022-09-05T21:26:48.217Z,20.30
2022-09-05T21:29:27.390Z,20.30
2022-09-05T21:32:10.284Z,20.30
2022-09-05T21:34:46.341Z,20.30
2022-09-05T21:37:16.799Z,20.30
2022-09-05T21:39:58.776Z,20.30
2022-09-05T21:45:35.368Z,20.30
2022-09-05T21:47:48.869Z,20.30
2022-09-05T21:48:13.352Z,20.30
2022-09-05T21:50:45.998Z,20.20
2022-09-05T21:55:51.739Z,20.10
2022-09-05T21:59:25.434Z,20.00
2022-09-05T21:59:32.962Z,20.10
2022-09-05T22:02:01.102Z,20.10
2022-09-05T22:04:47.403Z,20.10
2022-09-05T22:07:32.011Z,20.10
2022-09-05T22:10:03.496Z,20.10
2022-09-05T22:12:33.770Z,20.10
2022-09-05T22:15:26.282Z,20.00
2022-09-05T22:17:55.054Z,19.90
2022-09-05T22:21:12.766Z,19.80
2022-09-05T22:23:37.538Z,19.60
2022-09-05T22:26:07.678Z,19.30
2022-09-05T22:28:46.611Z,19.00
2022-09-05T22:31:14.829Z,18.90
2022-09-05T22:33:43.354Z,18.80
2022-09-05T22:36:14.933Z,18.80
2022-09-05T22:38:43.573Z,18.80
2022-09-05T22:41:12.826Z,18.80
2022-09-05T22:43:41.491Z,18.70
2022-09-05T22:46:10.402Z,18.70
2022-09-05T22:48:39.195Z,18.60
2022-09-05T22:51:08.361Z,18.60
2022-09-05T22:53:38.490Z,18.20
2022-09-05T22:56:08.625Z,18.20
2022-09-05T22:58:41.508Z,18.00
2022-09-05T23:01:10.514Z,18.00
2022-09-05T23:03:38.847Z,17.80
2022-09-05T23:06:08.720Z,17.90
2022-09-05T23:08:38.970Z,18.00
2022-09-05T23:11:08.561Z,18.00
2022-09-05T23:13:37.111Z,18.00
2022-09-05T23:16:05.524Z,18.00
2022-09-05T23:18:34.252Z,18.00
2022-09-05T23:21:04.102Z,17.90
2022-09-05T23:23:32.178Z,17.90
2022-09-05T23:26:03.844Z,18.00
2022-09-05T23:28:32.481Z,18.00
2022-09-05T23:31:01.174Z,18.00
2022-09-05T23:33:30.175Z,18.10
2022-09-05T23:36:01.130Z,18.10
2022-09-05T23:38:29.358Z,18.10
2022-09-05T23:41:03.778Z,18.10
2022-09-05T23:43:32.302Z,18.10
2022-09-05T23:46:01.194Z,18.10
2022-09-05T23:48:29.548Z,18.10
2022-09-05T23:50:57.989Z,18.10
2022-09-05T23:53:26.837Z,18.20
2022-09-05T23:55:55.018Z,18.20
2022-09-05T23:58:24.612Z,18.10
